createdAt,value
2023-01-26T00:01:44.772Z,-1.60
2023-01-26T00:04:12.868Z,-1.60
2023-01-26T00:06:40.765Z,-1.60
2023-01-26T00:09:14.394Z,-1.60
2023-01-26T00:11:42.516Z,-1.60
2023-01-26T00:14:10.369Z,-1.50
2023-01-26T00:16:38.289Z,-1.60
2023-01-26T00:19:07.507Z,-1.40
2023-01-26T00:21:35.508Z,-1.40
2023-01-26T00:24:04.522Z,-0.30
2023-01-26T00:26:32.503Z,-1.50
2023-01-26T00:29:01.704Z,-1.30
2023-01-26T00:31:29.872Z,-0.30
2023-01-26T00:33:58.439Z,-1.40
2023-01-26T00:36:28.429Z,-1.40
2023-01-26T00:38:57.367Z,-1.40
2023-01-26T00:41:42.850Z,-1.50
2023-01-26T00:44:10.714Z,-1.50
2023-01-26T00:46:39.074Z,-1.40
2023-01-26T00:49:07.219Z,-1.50
2023-01-26T00:51:36.461Z,-1.00
2023-01-26T00:54:04.468Z,-1.50
2023-01-26T00:56:32.398Z,-1.30
2023-01-26T00:59:00.276Z,-1.50
2023-01-26T01:01:28.184Z,-1.60
2023-01-26T01:03:56.114Z,-1.00
2023-01-26T01:06:24.244Z,-1.40
2023-01-26T01:08:53.460Z,-1.40
2023-01-26T01:11:21.421Z,-1.40
2023-01-26T01:13:49.303Z,-0.30
2023-01-26T01:16:17.943Z,-1.50
2023-01-26T01:18:46.270Z,-1.50
2023-01-26T01:21:16.373Z,-1.50
2023-01-26T01:23:44.954Z,-1.40
2023-01-26T01:26:15.465Z,-1.40
2023-01-26T01:28:44.522Z,-1.50
2023-01-26T01:31:14.521Z,-1.40
2023-01-26T01:33:42.657Z,-1.60
2023-01-26T01:36:13.173Z,-0.70
2023-01-26T01:38:41.245Z,-1.40
2023-01-26T01:41:09.674Z,-1.30
2023-01-26T01:43:39.299Z,-1.30
2023-01-26T01:46:12.900Z,-1.30
2023-01-26T01:48:49.933Z,-1.20
2023-01-26T01:51:22.664Z,-1.20
2023-01-26T01:53:52.660Z,-1.40
2023-01-26T01:56:24.384Z,-1.30
2023-01-26T01:58:56.111Z,-1.30
2023-01-26T02:01:24.232Z,-1.10
2023-01-26T02:03:55.521Z,-1.10
2023-01-26T02:06:29.531Z,-1.20
2023-01-26T02:08:59.004Z,-1.10
2023-01-26T02:11:30.645Z,-1.20
2023-01-26T02:14:01.655Z,-1.10
2023-01-26T02:16:29.672Z,-1.20
2023-01-26T02:18:57.724Z,-1.00
2023-01-26T02:21:26.014Z,-1.40
2023-01-26T02:24:08.217Z,-1.30
2023-01-26T02:26:39.869Z,-1.00
2023-01-26T02:29:11.025Z,-1.00
2023-01-26T02:31:39.835Z,-0.90
2023-01-26T02:34:07.713Z,-1.00
2023-01-26T02:36:36.019Z,-1.00
2023-01-26T02:39:23.317Z,-1.30
2023-01-26T02:42:11.693Z,-0.90
2023-01-26T02:44:41.740Z,-1.00
2023-01-26T02:47:14.159Z,-1.10
2023-01-26T02:49:47.313Z,-1.00
2023-01-26T02:52:15.752Z,-1.10
2023-01-26T02:55:01.031Z,-1.10
2023-01-26T02:57:30.353Z,-1.10
2023-01-26T02:59:58.345Z,-1.20
2023-01-26T03:02:26.294Z,-1.30
2023-01-26T03:04:54.216Z,-1.10
2023-01-26T03:07:22.099Z,-1.20
2023-01-26T03:09:49.983Z,-1.20
2023-01-26T03:12:17.956Z,-1.20
2023-01-26T03:15:07.330Z,0.80
2023-01-26T03:17:35.209Z,-1.20
2023-01-26T03:20:20.446Z,-1.40
2023-01-26T03:23:08.202Z,-1.10
2023-01-26T03:25:54.892Z,-1.00
2023-01-26T03:28:23.219Z,-1.00
2023-01-26T03:30:53.540Z,-1.00
2023-01-26T03:33:21.927Z,-1.20
2023-01-26T03:35:49.836Z,-1.10
2023-01-26T03:38:17.711Z,-1.00
2023-01-26T03:41:03.020Z,-1.00
2023-01-26T03:43:48.591Z,-1.10
2023-01-26T03:46:35.566Z,-1.10
2023-01-26T03:49:21.179Z,-1.00
2023-01-26T03:52:06.658Z,-1.20
2023-01-26T03:54:52.323Z,-1.20
2023-01-26T03:57:20.224Z,-1.10
2023-01-26T03:59:48.109Z,-1.00
2023-01-26T04:02:34.866Z,-1.20
2023-01-26T04:05:20.244Z,-1.10
2023-01-26T04:08:05.811Z,-1.10
2023-01-26T04:10:33.723Z,-1.00
2023-01-26T04:13:19.144Z,-1.00
2023-01-26T04:16:06.629Z,-1.00
2023-01-26T04:18:53.139Z,-1.10
2023-01-26T04:21:32.199Z,-1.10
2023-01-26T04:24:01.435Z,-0.30
2023-01-26T04:26:34.867Z,-1.00
2023-01-26T04:29:03.508Z,-1.10
2023-01-26T04:31:31.760Z,-1.00
2023-01-26T04:34:01.622Z,1.40
2023-01-26T04:36:29.669Z,-1.10
2023-01-26T04:38:57.866Z,-1.10
2023-01-26T04:41:26.071Z,-1.20
2023-01-26T04:43:53.981Z,-1.10
2023-01-26T04:46:21.935Z,-1.10
2023-01-26T04:48:49.816Z,-1.10
2023-01-26T04:51:21.035Z,-1.10
2023-01-26T04:53:49.943Z,-1.00
2023-01-26T04:56:22.989Z,-1.00
2023-01-26T04:58:51.501Z,-0.90
2023-01-26T05:01:19.894Z,-0.50
2023-01-26T05:03:47.827Z,-0.90
2023-01-26T05:06:16.092Z,-0.90
2023-01-26T05:08:45.498Z,-0.90
2023-01-26T05:11:13.627Z,-1.00
2023-01-26T05:13:41.508Z,-1.00
2023-01-26T05:16:13.876Z,-1.20
2023-01-26T05:18:41.804Z,1.80
2023-01-26T05:21:10.282Z,-1.00
2023-01-26T05:23:38.611Z,-1.00
2023-01-26T05:26:08.352Z,1.40
2023-01-26T05:28:37.016Z,-0.90
2023-01-26T05:31:05.296Z,-1.00
2023-01-26T05:33:33.359Z,-0.70
2023-01-26T05:36:05.988Z,-0.60
2023-01-26T05:38:33.964Z,-0.70
2023-01-26T05:41:01.912Z,-1.00
2023-01-26T05:43:31.648Z,-1.00
2023-01-26T05:45:59.648Z,-0.90
2023-01-26T05:48:27.776Z,-1.10
2023-01-26T05:50:57.536Z,-0.90
2023-01-26T05:53:25.715Z,-0.90
2023-01-26T05:55:53.652Z,-0.80
2023-01-26T05:58:21.535Z,-0.90
2023-01-26T06:00:50.876Z,-0.90
2023-01-26T06:03:18.814Z,-0.80
2023-01-26T06:05:53.815Z,-0.90
2023-01-26T06:08:21.689Z,-0.60
2023-01-26T06:10:49.604Z,-0.70
2023-01-26T06:13:18.606Z,-0.70
2023-01-26T06:15:46.496Z,-0.70
2023-01-26T06:18:15.753Z,-0.80
2023-01-26T06:20:46.588Z,-0.90
2023-01-26T06:23:14.914Z,-0.80
2023-01-26T06:25:44.674Z,-0.80
2023-01-26T06:28:17.913Z,-0.70
2023-01-26T06:30:46.798Z,-0.60
2023-01-26T06:33:19.773Z,-0.70
2023-01-26T06:35:48.504Z,-0.60
2023-01-26T06:38:17.583Z,-0.70
2023-01-26T06:40:46.018Z,-0.70
2023-01-26T06:43:14.961Z,-0.60
2023-01-26T06:45:44.302Z,-0.60
2023-01-26T06:48:12.236Z,-0.70
2023-01-26T06:50:41.726Z,-0.90
2023-01-26T06:53:30.555Z,1.30
2023-01-26T06:55:58.468Z,-0.30
2023-01-26T06:58:26.375Z,-0.80
2023-01-26T07:00:54.370Z,-0.80
2023-01-26T07:03:22.386Z,-0.70
2023-01-26T07:05:51.636Z,-0.60
2023-01-26T07:08:19.573Z,1.00
2023-01-26T07:10:47.468Z,-0.60
2023-01-26T07:13:15.444Z,-0.90
2023-01-26T07:15:43.357Z,-0.90
2023-01-26T07:18:11.538Z,-0.70
2023-01-26T07:20:39.481Z,0.20
2023-01-26T07:23:08.755Z,-0.80
2023-01-26T07:25:36.691Z,-0.80
2023-01-26T07:28:04.797Z,-0.70
2023-01-26T07:30:32.736Z,-0.50
2023-01-26T07:33:01.332Z,-0.70
2023-01-26T07:35:29.877Z,-0.70
2023-01-26T07:37:58.932Z,-0.70
2023-01-26T07:40:28.238Z,-0.70
2023-01-26T07:42:57.105Z,-0.30
2023-01-26T07:45:24.992Z,-1.00
2023-01-26T07:47:55.160Z,-1.00
2023-01-26T07:50:23.126Z,-0.90
2023-01-26T07:52:52.507Z,-0.60
2023-01-26T07:55:21.422Z,-0.70
2023-01-26T07:57:50.735Z,-0.50
2023-01-26T08:00:19.958Z,-0.40
2023-01-26T08:02:51.178Z,-0.40
2023-01-26T08:05:19.139Z,-0.40
2023-01-26T08:07:47.142Z,-0.60
2023-01-26T08:10:15.086Z,-0.80
2023-01-26T08:12:42.948Z,-0.40
2023-01-26T08:15:13.025Z,-0.40
2023-01-26T08:17:40.916Z,-0.30
2023-01-26T08:20:10.604Z,-0.60
2023-01-26T08:22:38.651Z,-0.20
2023-01-26T08:25:07.568Z,-0.30
2023-01-26T08:27:35.495Z,-0.10
2023-01-26T08:30:03.460Z,-0.60
2023-01-26T08:32:32.752Z,-0.30
2023-01-26T08:35:00.682Z,-0.30
2023-01-26T08:37:28.577Z,-0.30
2023-01-26T08:39:56.535Z,-0.20
2023-01-26T08:42:25.350Z,-0.20
2023-01-26T08:44:53.445Z,-0.10
2023-01-26T08:47:21.404Z,1.40
2023-01-26T08:49:50.668Z,-0.20
2023-01-26T08:52:18.621Z,-0.10
2023-01-26T08:54:46.501Z,1.80
2023-01-26T08:57:14.443Z,1.70
2023-01-26T08:59:42.319Z,-0.10
2023-01-26T09:02:11.199Z,-0.20
2023-01-26T09:04:39.157Z,0.00
2023-01-26T09:07:08.577Z,0.00
2023-01-26T09:09:36.429Z,0.00
2023-01-26T09:12:04.518Z,0.20
2023-01-26T09:14:32.412Z,0.20
2023-01-26T09:17:00.392Z,0.20
2023-01-26T09:19:30.087Z,0.20
2023-01-26T09:21:58.861Z,0.30
2023-01-26T09:24:28.228Z,0.20
2023-01-26T09:26:56.808Z,0.30
2023-01-26T09:29:24.817Z,0.40
2023-01-26T09:31:52.822Z,0.30
2023-01-26T09:34:20.772Z,0.30
2023-01-26T09:36:48.661Z,0.40
2023-01-26T09:39:17.009Z,0.40
2023-01-26T09:41:56.962Z,0.40
2023-01-26T09:44:26.932Z,0.40
2023-01-26T09:47:07.177Z,0.30
2023-01-26T09:49:46.660Z,0.30
2023-01-26T09:52:22.924Z,0.40
2023-01-26T09:54:53.542Z,0.40
2023-01-26T09:57:35.060Z,0.40
2023-01-26T10:00:09.543Z,0.40
2023-01-26T10:02:50.852Z,0.80
2023-01-26T10:05:25.940Z,-0.80
2023-01-26T10:07:53.859Z,0.40
2023-01-26T10:10:30.631Z,0.40
2023-01-26T10:13:00.672Z,0.40
2023-01-26T10:15:32.344Z,0.50
2023-01-26T10:18:05.666Z,0.50
2023-01-26T10:20:36.244Z,0.50
2023-01-26T10:23:08.441Z,0.60
2023-01-26T10:25:37.726Z,0.50
2023-01-26T10:28:15.089Z,0.50
2023-01-26T10:30:45.174Z,0.70
2023-01-26T10:33:17.688Z,0.60
2023-01-26T10:35:45.907Z,0.60
2023-01-26T10:38:42.935Z,0.60
2023-01-26T10:41:29.256Z,0.70
2023-01-26T10:44:00.342Z,0.80
2023-01-26T10:46:35.793Z,0.70
2023-01-26T10:49:05.268Z,0.70
2023-01-26T10:51:34.741Z,0.80
2023-01-26T10:54:18.702Z,0.70
2023-01-26T10:56:47.980Z,0.70
2023-01-26T10:59:26.245Z,2.20
2023-01-26T11:02:00.117Z,0.90
2023-01-26T11:04:29.089Z,1.00
2023-01-26T11:06:57.171Z,0.90
2023-01-26T11:09:28.026Z,0.90
2023-01-26T11:12:02.269Z,0.90
2023-01-26T11:14:32.989Z,1.10
2023-01-26T11:17:09.811Z,1.00
2023-01-26T11:20:01.646Z,1.00
2023-01-26T11:22:34.884Z,1.10
2023-01-26T11:25:16.287Z,1.10
2023-01-26T11:27:52.478Z,1.20
2023-01-26T11:30:36.761Z,1.00
2023-01-26T11:33:15.114Z,1.20
2023-01-26T11:35:52.858Z,0.90
2023-01-26T11:38:31.577Z,1.00
2023-01-26T11:41:10.523Z,1.10
2023-01-26T11:43:58.930Z,0.90
2023-01-26T11:46:46.146Z,1.00
2023-01-26T11:49:27.988Z,1.20
2023-01-26T11:52:07.927Z,1.00
2023-01-26T11:54:56.393Z,1.20
2023-01-26T11:57:32.459Z,1.00
2023-01-26T12:00:05.397Z,1.00
2023-01-26T12:02:37.726Z,1.00
2023-01-26T12:05:15.075Z,1.00
2023-01-26T12:07:54.509Z,1.00
2023-01-26T12:10:26.635Z,1.10
2023-01-26T12:12:59.732Z,1.00
2023-01-26T12:15:34.079Z,1.20
2023-01-26T12:18:12.052Z,1.20
2023-01-26T12:20:43.432Z,1.20
2023-01-26T12:23:22.373Z,1.40
2023-01-26T12:25:54.185Z,1.20
2023-01-26T12:28:25.610Z,1.20
2023-01-26T12:31:01.041Z,1.40
2023-01-26T12:33:32.038Z,1.20
2023-01-26T12:36:20.594Z,1.40
2023-01-26T12:39:00.513Z,1.50
2023-01-26T12:41:40.254Z,1.40
2023-01-26T12:44:30.946Z,1.30
2023-01-26T12:47:04.229Z,1.40
2023-01-26T12:49:38.253Z,1.90
2023-01-26T12:52:09.789Z,1.50
2023-01-26T12:54:44.233Z,1.60
2023-01-26T12:57:15.675Z,1.50
2023-01-26T12:59:47.915Z,1.50
2023-01-26T13:02:29.575Z,1.60
2023-01-26T13:05:01.465Z,2.60
2023-01-26T13:07:32.884Z,1.60
2023-01-26T13:10:24.510Z,1.60
2023-01-26T13:12:54.944Z,1.80
2023-01-26T13:15:24.715Z,1.60
2023-01-26T13:17:57.869Z,1.70
2023-01-26T13:20:40.328Z,1.80
2023-01-26T13:23:52.867Z,1.60
2023-01-26T13:26:45.142Z,1.80
2023-01-26T13:29:32.768Z,1.70
2023-01-26T13:32:03.114Z,1.70
2023-01-26T13:34:37.542Z,1.60
2023-01-26T13:37:15.934Z,1.70
2023-01-26T13:39:49.449Z,1.70
2023-01-26T13:42:23.610Z,1.70
2023-01-26T13:44:56.937Z,1.70
2023-01-26T13:47:31.449Z,1.70
2023-01-26T13:49:59.315Z,1.70
2023-01-26T13:52:29.520Z,1.80
2023-01-26T13:54:58.380Z,1.70
2023-01-26T13:57:27.858Z,1.60
2023-01-26T13:59:59.031Z,2.50
2023-01-26T14:02:31.170Z,1.70
2023-01-26T14:05:00.555Z,1.80
2023-01-26T14:07:33.696Z,1.90
2023-01-26T14:10:03.369Z,1.80
2023-01-26T14:12:35.950Z,1.80
2023-01-26T14:15:07.236Z,1.90
2023-01-26T14:17:37.385Z,2.20
2023-01-26T14:20:25.152Z,3.40
2023-01-26T14:23:14.756Z,2.20
2023-01-26T14:25:46.370Z,2.00
2023-01-26T14:28:16.761Z,1.90
2023-01-26T14:30:45.996Z,3.50
2023-01-26T14:33:15.980Z,2.10
2023-01-26T14:35:55.247Z,3.60
2023-01-26T14:38:27.963Z,4.30
2023-01-26T14:40:58.026Z,3.50
2023-01-26T14:43:27.744Z,2.00
2023-01-26T14:46:01.385Z,2.20
2023-01-26T14:48:35.547Z,1.60
2023-01-26T14:51:07.002Z,2.10
2023-01-26T14:53:36.320Z,2.20
2023-01-26T14:56:04.283Z,1.80
2023-01-26T14:58:33.676Z,1.90
2023-01-26T15:01:03.067Z,1.90
2023-01-26T15:03:36.337Z,2.00
2023-01-26T15:06:18.787Z,2.00
2023-01-26T15:08:57.642Z,2.00
2023-01-26T15:11:46.993Z,2.00
2023-01-26T15:14:48.935Z,1.90
2023-01-26T15:17:30.151Z,1.70
2023-01-26T15:19:58.209Z,2.00
2023-01-26T15:22:27.472Z,2.40
2023-01-26T15:25:06.796Z,1.90
2023-01-26T15:27:36.131Z,2.20
2023-01-26T15:30:06.471Z,2.00
2023-01-26T15:32:40.402Z,2.20
2023-01-26T15:35:19.377Z,2.10
2023-01-26T15:37:47.905Z,2.20
2023-01-26T15:40:17.456Z,2.10
2023-01-26T15:42:45.388Z,2.20
2023-01-26T15:45:25.161Z,2.00
2023-01-26T15:47:53.205Z,3.30
2023-01-26T15:50:27.931Z,2.30
2023-01-26T15:52:56.228Z,1.90
2023-01-26T15:55:29.053Z,1.90
2023-01-26T15:57:56.988Z,2.00
2023-01-26T16:00:24.976Z,2.00
2023-01-26T16:02:52.920Z,2.10
2023-01-26T16:05:22.737Z,1.90
2023-01-26T16:07:52.994Z,1.90
2023-01-26T16:10:20.907Z,2.00
2023-01-26T16:12:51.211Z,2.10
2023-01-26T16:15:31.956Z,1.90
2023-01-26T16:17:59.845Z,2.10
2023-01-26T16:20:27.771Z,1.80
2023-01-26T16:22:55.654Z,2.00
2023-01-26T16:25:26.696Z,2.00
2023-01-26T16:27:56.757Z,1.90
2023-01-26T16:30:25.594Z,1.90
2023-01-26T16:32:54.109Z,2.00
2023-01-26T16:35:23.756Z,2.10
2023-01-26T16:37:52.018Z,2.00
2023-01-26T16:40:20.694Z,3.00
2023-01-26T16:42:50.746Z,2.10
2023-01-26T16:45:22.128Z,3.10
2023-01-26T16:47:52.289Z,3.00
2023-01-26T16:50:20.333Z,2.10
2023-01-26T16:52:48.390Z,3.60
2023-01-26T16:55:16.958Z,2.20
2023-01-26T16:57:46.584Z,3.30
2023-01-26T17:00:17.157Z,1.90
2023-01-26T17:02:51.627Z,2.30
2023-01-26T17:05:21.443Z,2.10
2023-01-26T17:07:50.843Z,2.00
2023-01-26T17:10:21.989Z,2.10
2023-01-26T17:12:49.853Z,2.40
2023-01-26T17:15:17.932Z,2.10
2023-01-26T17:17:49.812Z,2.30
2023-01-26T17:20:20.047Z,2.10
2023-01-26T17:22:48.426Z,2.40
2023-01-26T17:25:17.697Z,2.10
2023-01-26T17:27:46.299Z,2.10
2023-01-26T17:30:14.580Z,2.10
2023-01-26T17:32:43.339Z,2.30
2023-01-26T17:35:13.058Z,2.00
2023-01-26T17:37:41.357Z,2.00
2023-01-26T17:40:12.517Z,2.20
2023-01-26T17:42:40.659Z,2.30
2023-01-26T17:45:10.376Z,2.10
2023-01-26T17:47:38.629Z,2.40
2023-01-26T17:50:07.487Z,2.10
2023-01-26T17:52:36.748Z,2.40
2023-01-26T17:55:07.091Z,2.10
2023-01-26T17:57:35.317Z,2.40
2023-01-26T18:00:03.747Z,2.20
2023-01-26T18:02:31.889Z,2.40
2023-01-26T18:04:59.831Z,4.10
2023-01-26T18:07:27.744Z,3.50
2023-01-26T18:09:57.049Z,2.20
2023-01-26T18:12:24.979Z,2.20
2023-01-26T18:14:55.059Z,2.20
2023-01-26T18:17:23.486Z,3.80
2023-01-26T18:19:51.388Z,3.70
2023-01-26T18:22:19.704Z,3.40
2023-01-26T18:24:49.063Z,2.30
2023-01-26T18:27:18.356Z,2.10
2023-01-26T18:29:47.472Z,2.20
2023-01-26T18:32:15.524Z,3.50
2023-01-26T18:34:43.615Z,2.20
2023-01-26T18:37:12.606Z,2.20
2023-01-26T18:39:40.515Z,4.10
2023-01-26T18:42:08.422Z,2.40
2023-01-26T18:44:37.704Z,2.20
2023-01-26T18:47:05.813Z,3.00
2023-01-26T18:49:33.852Z,2.50
2023-01-26T18:52:01.740Z,2.10
2023-01-26T18:54:30.871Z,2.90
2023-01-26T18:56:58.788Z,2.40
2023-01-26T18:59:26.890Z,2.10
2023-01-26T19:01:56.293Z,2.40
2023-01-26T19:04:24.241Z,4.60
2023-01-26T19:06:52.122Z,2.20
2023-01-26T19:09:20.085Z,2.20
2023-01-26T19:11:48.484Z,2.20
2023-01-26T19:14:16.388Z,2.10
2023-01-26T19:16:47.540Z,2.30
2023-01-26T19:19:16.948Z,2.30
2023-01-26T19:21:45.076Z,4.60
2023-01-26T19:24:13.095Z,4.30
2023-01-26T19:26:41.041Z,4.40
2023-01-26T19:29:08.985Z,2.10
2023-01-26T19:31:37.294Z,1.80
2023-01-26T19:34:08.049Z,2.10
2023-01-26T19:36:38.055Z,2.10
2023-01-26T19:39:07.203Z,2.20
2023-01-26T19:41:35.144Z,2.60
2023-01-26T19:44:03.169Z,2.40
2023-01-26T19:46:31.095Z,2.20
2023-01-26T19:48:59.075Z,3.10
2023-01-26T19:51:27.993Z,3.50
2023-01-26T19:53:59.321Z,2.00
2023-01-26T19:56:29.174Z,2.10
2023-01-26T19:58:58.650Z,2.30
2023-01-26T20:01:27.922Z,4.50
2023-01-26T20:03:59.097Z,3.20
2023-01-26T20:06:28.948Z,2.10
2023-01-26T20:08:58.734Z,4.10
2023-01-26T20:11:28.766Z,2.20
2023-01-26T20:13:59.033Z,2.20
2023-01-26T20:16:28.849Z,2.00
2023-01-26T20:18:57.101Z,2.30
2023-01-26T20:21:25.758Z,2.20
2023-01-26T20:23:55.827Z,2.20
2023-01-26T20:26:27.446Z,3.30
2023-01-26T20:28:58.128Z,2.20
2023-01-26T20:31:27.711Z,1.70
2023-01-26T20:33:56.263Z,2.00
2023-01-26T20:36:27.052Z,2.10
2023-01-26T20:38:55.113Z,2.90
2023-01-26T20:41:26.058Z,2.00
2023-01-26T20:44:00.970Z,2.00
2023-01-26T20:46:32.116Z,2.00
2023-01-26T20:49:00.692Z,2.80
2023-01-26T20:51:30.953Z,2.00
2023-01-26T20:53:59.296Z,2.00
2023-01-26T20:56:28.619Z,1.80
2023-01-26T20:58:57.074Z,2.10
2023-01-26T21:01:26.094Z,4.10
2023-01-26T21:03:54.670Z,1.90
2023-01-26T21:06:24.150Z,3.60
2023-01-26T21:08:55.330Z,2.00
2023-01-26T21:11:25.080Z,3.30
2023-01-26T21:13:56.140Z,4.30
2023-01-26T21:16:25.110Z,1.70
2023-01-26T21:18:53.158Z,2.40
2023-01-26T21:21:22.544Z,1.70
2023-01-26T21:23:51.265Z,1.70
2023-01-26T21:26:22.143Z,4.50
2023-01-26T21:28:52.265Z,1.80
2023-01-26T21:31:22.579Z,1.80
2023-01-26T21:33:51.676Z,1.90
2023-01-26T21:36:21.906Z,2.90
2023-01-26T21:38:52.065Z,3.20
2023-01-26T21:41:39.501Z,1.80
2023-01-26T21:44:09.167Z,1.60
2023-01-26T21:46:38.472Z,2.00
2023-01-26T21:49:06.965Z,1.90
2023-01-26T21:51:53.468Z,1.80
2023-01-26T21:54:21.366Z,1.90
2023-01-26T21:56:49.292Z,2.00
2023-01-26T21:59:18.335Z,1.90
2023-01-26T22:01:49.028Z,3.60
2023-01-26T22:04:18.456Z,1.90
2023-01-26T22:06:46.409Z,1.90
2023-01-26T22:09:16.275Z,1.90
2023-01-26T22:11:44.300Z,1.80
2023-01-26T22:14:15.379Z,1.90
2023-01-26T22:16:43.850Z,1.90
2023-01-26T22:19:13.999Z,2.50
2023-01-26T22:21:42.001Z,2.10
2023-01-26T22:24:12.185Z,2.60
2023-01-26T22:26:40.695Z,2.40
2023-01-26T22:29:09.138Z,3.00
2023-01-26T22:31:37.091Z,1.80
2023-01-26T22:34:05.345Z,1.90
2023-01-26T22:36:34.645Z,2.30
2023-01-26T22:39:02.653Z,2.20
2023-01-26T22:41:31.108Z,2.00
2023-01-26T22:44:00.556Z,2.20
2023-01-26T22:46:30.395Z,1.70
2023-01-26T22:48:59.083Z,2.10
2023-01-26T22:51:29.234Z,2.00
2023-01-26T22:53:59.535Z,1.90
2023-01-26T22:56:29.855Z,2.00
2023-01-26T22:59:00.308Z,2.20
2023-01-26T23:01:29.794Z,2.00
2023-01-26T23:03:58.693Z,2.10
2023-01-26T23:06:27.376Z,2.10
2023-01-26T23:08:55.881Z,2.00
2023-01-26T23:11:27.441Z,2.10
2023-01-26T23:13:56.793Z,2.10
2023-01-26T23:16:26.189Z,3.50
2023-01-26T23:18:56.045Z,1.90
2023-01-26T23:21:25.150Z,1.90
2023-01-26T23:23:53.112Z,2.00
2023-01-26T23:26:21.474Z,2.00
2023-01-26T23:28:50.742Z,1.90
2023-01-26T23:31:19.495Z,2.00
2023-01-26T23:33:47.703Z,2.10
2023-01-26T23:36:16.415Z,2.10
2023-01-26T23:38:45.612Z,4.30
2023-01-26T23:41:14.147Z,2.10
2023-01-26T23:43:42.094Z,2.50
2023-01-26T23:46:12.425Z,2.10
2023-01-26T23:48:40.668Z,3.70
2023-01-26T23:51:10.681Z,2.50
2023-01-26T23:53:38.997Z,2.10
2023-01-26T23:56:09.214Z,2.20
2023-01-26T23:58:37.651Z,2.40
